sensor_id;sensor_type;location;lat;lon;timestamp;P1;durP1;ratioP1;P2;durP2;ratioP2
59458;SDS011;45269;43.568;22.244;2023-02-13T00:01:49;207.02;;;154.07;;
59458;SDS011;45269;43.568;22.244;2023-02-13T00:04:15;207.05;;;155.75;;
59458;SDS011;45269;43.568;22.244;2023-02-13T00:06:41;211.77;;;159.57;;
59458;SDS011;45269;43.568;22.244;2023-02-13T00:09:06;205.60;;;156.13;;
59458;SDS011;45269;43.568;22.244;2023-02-13T00:11:35;264.90;;;202.23;;
59458;SDS011;45269;43.568;22.244;2023-02-13T00:14:00;258.65;;;201.57;;
59458;SDS011;45269;43.568;22.244;2023-02-13T00:16:25;244.32;;;185.07;;
59458;SDS011;45269;43.568;22.244;2023-02-13T00:18:51;217.52;;;170.70;;
59458;SDS011;45269;43.568;22.244;2023-02-13T00:21:16;212.48;;;160.88;;
59458;SDS011;45269;43.568;22.244;2023-02-13T00:23:41;192.30;;;148.15;;
59458;SDS011;45269;43.568;22.244;2023-02-13T00:26:08;187.57;;;139.55;;
59458;SDS011;45269;43.568;22.244;2023-02-13T00:28:34;198.75;;;147.80;;
59458;SDS011;45269;43.568;22.244;2023-02-13T00:31:18;212.88;;;159.68;;
59458;SDS011;45269;43.568;22.244;2023-02-13T00:33:43;227.98;;;169.75;;
59458;SDS011;45269;43.568;22.244;2023-02-13T00:36:13;242.23;;;186.05;;
59458;SDS011;45269;43.568;22.244;2023-02-13T00:41:04;201.73;;;155.18;;
59458;SDS011;45269;43.568;22.244;2023-02-13T00:43:29;317.25;;;226.63;;
59458;SDS011;45269;43.568;22.244;2023-02-13T00:45:55;361.23;;;261.65;;
59458;SDS011;45269;43.568;22.244;2023-02-13T00:48:22;402.73;;;285.90;;
59458;SDS011;45269;43.568;22.244;2023-02-13T00:50:47;388.65;;;272.33;;
59458;SDS011;45269;43.568;22.244;2023-02-13T00:53:13;298.05;;;214.35;;
59458;SDS011;45269;43.568;22.244;2023-02-13T00:55:38;265.83;;;192.05;;
59458;SDS011;45269;43.568;22.244;2023-02-13T00:58:03;315.40;;;219.70;;
59458;SDS011;45269;43.568;22.244;2023-02-13T01:00:28;285.50;;;200.95;;
59458;SDS011;45269;43.568;22.244;2023-02-13T01:02:54;252.95;;;181.18;;
59458;SDS011;45269;43.568;22.244;2023-02-13T01:05:19;244.75;;;174.40;;
59458;SDS011;45269;43.568;22.244;2023-02-13T01:07:44;287.75;;;205.50;;
59458;SDS011;45269;43.568;22.244;2023-02-13T01:10:10;330.77;;;230.70;;
59458;SDS011;45269;43.568;22.244;2023-02-13T01:12:35;327.48;;;231.45;;
59458;SDS011;45269;43.568;22.244;2023-02-13T01:15:01;309.00;;;217.13;;
59458;SDS011;45269;43.568;22.244;2023-02-13T01:17:26;311.08;;;219.10;;
59458;SDS011;45269;43.568;22.244;2023-02-13T01:19:52;271.52;;;192.98;;
59458;SDS011;45269;43.568;22.244;2023-02-13T01:22:17;258.00;;;183.73;;
59458;SDS011;45269;43.568;22.244;2023-02-13T01:24:42;245.35;;;175.68;;
59458;SDS011;45269;43.568;22.244;2023-02-13T01:27:07;322.40;;;227.35;;
59458;SDS011;45269;43.568;22.244;2023-02-13T01:29:33;270.48;;;196.57;;
59458;SDS011;45269;43.568;22.244;2023-02-13T01:31:58;235.18;;;171.43;;
59458;SDS011;45269;43.568;22.244;2023-02-13T01:34:23;321.27;;;228.05;;
59458;SDS011;45269;43.568;22.244;2023-02-13T01:36:49;329.55;;;232.13;;
59458;SDS011;45269;43.568;22.244;2023-02-13T01:39:14;373.33;;;255.82;;
59458;SDS011;45269;43.568;22.244;2023-02-13T01:41:39;333.38;;;229.15;;
59458;SDS011;45269;43.568;22.244;2023-02-13T01:46:49;310.30;;;222.93;;
59458;SDS011;45269;43.568;22.244;2023-02-13T01:49:15;369.92;;;250.20;;
59458;SDS011;45269;43.568;22.244;2023-02-13T01:51:42;407.00;;;278.08;;
59458;SDS011;45269;43.568;22.244;2023-02-13T01:54:13;434.20;;;295.42;;
59458;SDS011;45269;43.568;22.244;2023-02-13T01:59:41;389.77;;;265.08;;
59458;SDS011;45269;43.568;22.244;2023-02-13T02:01:55;387.02;;;257.23;;
59458;SDS011;45269;43.568;22.244;2023-02-13T02:04:23;331.15;;;227.98;;
59458;SDS011;45269;43.568;22.244;2023-02-13T02:06:54;359.50;;;231.90;;
59458;SDS011;45269;43.568;22.244;2023-02-13T02:09:22;315.98;;;220.15;;
59458;SDS011;45269;43.568;22.244;2023-02-13T02:14:20;240.85;;;163.43;;
59458;SDS011;45269;43.568;22.244;2023-02-13T02:16:45;183.60;;;129.98;;
59458;SDS011;45269;43.568;22.244;2023-02-13T02:19:16;221.25;;;155.20;;
59458;SDS011;45269;43.568;22.244;2023-02-13T02:21:45;233.75;;;164.73;;
59458;SDS011;45269;43.568;22.244;2023-02-13T02:39:31;191.98;;;141.57;;
59458;SDS011;45269;43.568;22.244;2023-02-13T02:44:39;178.70;;;129.30;;
59458;SDS011;45269;43.568;22.244;2023-02-13T02:47:17;223.98;;;151.45;;
59458;SDS011;45269;43.568;22.244;2023-02-13T02:55:30;187.77;;;131.15;;
59458;SDS011;45269;43.568;22.244;2023-02-13T02:58:19;298.73;;;189.30;;
59458;SDS011;45269;43.568;22.244;2023-02-13T03:01:01;234.32;;;161.98;;
59458;SDS011;45269;43.568;22.244;2023-02-13T03:03:46;203.55;;;144.95;;
59458;SDS011;45269;43.568;22.244;2023-02-13T03:06:43;204.55;;;146.50;;
59458;SDS011;45269;43.568;22.244;2023-02-13T03:09:23;179.95;;;129.52;;
59458;SDS011;45269;43.568;22.244;2023-02-13T03:12:09;219.18;;;156.63;;
59458;SDS011;45269;43.568;22.244;2023-02-13T03:14:54;226.40;;;160.07;;
59458;SDS011;45269;43.568;22.244;2023-02-13T03:17:19;249.07;;;172.18;;
59458;SDS011;45269;43.568;22.244;2023-02-13T03:22:55;238.57;;;166.45;;
59458;SDS011;45269;43.568;22.244;2023-02-13T03:25:28;216.82;;;156.60;;
59458;SDS011;45269;43.568;22.244;2023-02-13T03:36:36;185.25;;;132.90;;
59458;SDS011;45269;43.568;22.244;2023-02-13T03:42:13;152.50;;;114.05;;
59458;SDS011;45269;43.568;22.244;2023-02-13T03:44:40;141.23;;;103.97;;
59458;SDS011;45269;43.568;22.244;2023-02-13T03:47:08;349.15;;;271.77;;
59458;SDS011;45269;43.568;22.244;2023-02-13T03:49:41;282.05;;;221.75;;
59458;SDS011;45269;43.568;22.244;2023-02-13T03:52:28;252.35;;;188.27;;
59458;SDS011;45269;43.568;22.244;2023-02-13T03:55:15;236.10;;;170.32;;
59458;SDS011;45269;43.568;22.244;2023-02-13T04:01:16;218.80;;;156.10;;
59458;SDS011;45269;43.568;22.244;2023-02-13T04:06:18;188.48;;;135.65;;
59458;SDS011;45269;43.568;22.244;2023-02-13T04:08:44;169.30;;;125.18;;
59458;SDS011;45269;43.568;22.244;2023-02-13T04:13:42;128.10;;;100.18;;
59458;SDS011;45269;43.568;22.244;2023-02-13T04:16:10;125.57;;;97.22;;
59458;SDS011;45269;43.568;22.244;2023-02-13T04:18:37;118.55;;;91.90;;
59458;SDS011;45269;43.568;22.244;2023-02-13T04:21:04;122.60;;;92.25;;
59458;SDS011;45269;43.568;22.244;2023-02-13T04:23:30;134.80;;;108.28;;
59458;SDS011;45269;43.568;22.244;2023-02-13T04:25:55;149.70;;;115.55;;
59458;SDS011;45269;43.568;22.244;2023-02-13T04:28:21;160.35;;;121.82;;
59458;SDS011;45269;43.568;22.244;2023-02-13T04:30:47;155.52;;;120.20;;
59458;SDS011;45269;43.568;22.244;2023-02-13T04:33:13;145.48;;;112.78;;
59458;SDS011;45269;43.568;22.244;2023-02-13T04:35:39;141.23;;;106.75;;
59458;SDS011;45269;43.568;22.244;2023-02-13T04:38:04;131.98;;;99.43;;
59458;SDS011;45269;43.568;22.244;2023-02-13T04:40:29;131.57;;;97.10;;
59458;SDS011;45269;43.568;22.244;2023-02-13T04:42:55;134.27;;;100.72;;
59458;SDS011;45269;43.568;22.244;2023-02-13T04:45:20;133.75;;;99.15;;
59458;SDS011;45269;43.568;22.244;2023-02-13T04:47:49;155.15;;;112.78;;
59458;SDS011;45269;43.568;22.244;2023-02-13T04:50:15;193.35;;;142.82;;
59458;SDS011;45269;43.568;22.244;2023-02-13T04:52:40;168.73;;;120.80;;
59458;SDS011;45269;43.568;22.244;2023-02-13T04:55:05;142.05;;;104.97;;
59458;SDS011;45269;43.568;22.244;2023-02-13T04:57:31;137.63;;;101.53;;
59458;SDS011;45269;43.568;22.244;2023-02-13T04:59:56;168.48;;;127.55;;
59458;SDS011;45269;43.568;22.244;2023-02-13T05:02:21;295.83;;;214.70;;
59458;SDS011;45269;43.568;22.244;2023-02-13T05:04:47;233.52;;;168.68;;
59458;SDS011;45269;43.568;22.244;2023-02-13T05:07:12;347.70;;;254.18;;
59458;SDS011;45269;43.568;22.244;2023-02-13T05:09:37;269.02;;;196.95;;
59458;SDS011;45269;43.568;22.244;2023-02-13T05:12:02;164.95;;;122.88;;
59458;SDS011;45269;43.568;22.244;2023-02-13T05:14:28;159.02;;;120.57;;
59458;SDS011;45269;43.568;22.244;2023-02-13T05:16:53;163.32;;;124.95;;
59458;SDS011;45269;43.568;22.244;2023-02-13T05:19:18;178.82;;;135.30;;
59458;SDS011;45269;43.568;22.244;2023-02-13T05:21:44;156.30;;;113.88;;
59458;SDS011;45269;43.568;22.244;2023-02-13T05:24:28;186.40;;;137.18;;
59458;SDS011;45269;43.568;22.244;2023-02-13T05:26:53;182.18;;;134.75;;
59458;SDS011;45269;43.568;22.244;2023-02-13T05:29:18;155.40;;;115.28;;
59458;SDS011;45269;43.568;22.244;2023-02-13T05:31:47;152.40;;;114.22;;
59458;SDS011;45269;43.568;22.244;2023-02-13T05:34:13;152.80;;;115.45;;
59458;SDS011;45269;43.568;22.244;2023-02-13T05:36:38;143.48;;;105.80;;
59458;SDS011;45269;43.568;22.244;2023-02-13T05:39:04;133.88;;;99.25;;
59458;SDS011;45269;43.568;22.244;2023-02-13T05:41:29;142.05;;;106.60;;
59458;SDS011;45269;43.568;22.244;2023-02-13T05:43:54;152.95;;;115.78;;
59458;SDS011;45269;43.568;22.244;2023-02-13T05:46:19;148.55;;;107.10;;
59458;SDS011;45269;43.568;22.244;2023-02-13T05:48:45;157.82;;;118.00;;
59458;SDS011;45269;43.568;22.244;2023-02-13T05:51:10;172.38;;;127.05;;
59458;SDS011;45269;43.568;22.244;2023-02-13T05:53:35;192.55;;;140.52;;
59458;SDS011;45269;43.568;22.244;2023-02-13T05:56:01;183.27;;;136.00;;
59458;SDS011;45269;43.568;22.244;2023-02-13T05:58:26;209.10;;;153.10;;
59458;SDS011;45269;43.568;22.244;2023-02-13T06:00:53;228.15;;;166.85;;
59458;SDS011;45269;43.568;22.244;2023-02-13T06:03:19;221.75;;;172.15;;
59458;SDS011;45269;43.568;22.244;2023-02-13T06:05:44;217.90;;;163.70;;
59458;SDS011;45269;43.568;22.244;2023-02-13T06:08:09;213.95;;;159.85;;
59458;SDS011;45269;43.568;22.244;2023-02-13T06:10:35;193.30;;;143.07;;
59458;SDS011;45269;43.568;22.244;2023-02-13T06:13:00;211.30;;;160.63;;
59458;SDS011;45269;43.568;22.244;2023-02-13T06:15:25;248.10;;;187.48;;
59458;SDS011;45269;43.568;22.244;2023-02-13T06:17:51;248.20;;;184.27;;
59458;SDS011;45269;43.568;22.244;2023-02-13T06:20:16;488.98;;;386.13;;
59458;SDS011;45269;43.568;22.244;2023-02-13T06:22:41;257.95;;;195.82;;
59458;SDS011;45269;43.568;22.244;2023-02-13T06:25:07;280.48;;;213.65;;
59458;SDS011;45269;43.568;22.244;2023-02-13T06:27:32;306.52;;;249.20;;
59458;SDS011;45269;43.568;22.244;2023-02-13T06:29:57;274.13;;;208.07;;
59458;SDS011;45269;43.568;22.244;2023-02-13T06:32:23;283.23;;;224.90;;
59458;SDS011;45269;43.568;22.244;2023-02-13T06:34:48;213.18;;;166.70;;
59458;SDS011;45269;43.568;22.244;2023-02-13T06:37:13;268.45;;;206.60;;
59458;SDS011;45269;43.568;22.244;2023-02-13T06:39:39;305.92;;;237.90;;
59458;SDS011;45269;43.568;22.244;2023-02-13T06:42:04;422.33;;;312.38;;
59458;SDS011;45269;43.568;22.244;2023-02-13T06:44:29;315.98;;;245.40;;
59458;SDS011;45269;43.568;22.244;2023-02-13T06:46:55;273.00;;;212.75;;
59458;SDS011;45269;43.568;22.244;2023-02-13T06:49:20;189.07;;;143.50;;
59458;SDS011;45269;43.568;22.244;2023-02-13T06:51:45;178.23;;;134.60;;
59458;SDS011;45269;43.568;22.244;2023-02-13T06:54:11;186.05;;;138.60;;
59458;SDS011;45269;43.568;22.244;2023-02-13T06:56:36;233.32;;;174.43;;
59458;SDS011;45269;43.568;22.244;2023-02-13T06:59:01;344.83;;;221.15;;
59458;SDS011;45269;43.568;22.244;2023-02-13T07:01:26;397.85;;;257.02;;
59458;SDS011;45269;43.568;22.244;2023-02-13T07:03:52;303.95;;;201.43;;
59458;SDS011;45269;43.568;22.244;2023-02-13T07:06:20;271.33;;;200.95;;
59458;SDS011;45269;43.568;22.244;2023-02-13T07:08:46;332.98;;;245.50;;
59458;SDS011;45269;43.568;22.244;2023-02-13T07:11:18;489.30;;;340.92;;
59458;SDS011;45269;43.568;22.244;2023-02-13T07:13:44;418.20;;;297.15;;
59458;SDS011;45269;43.568;22.244;2023-02-13T07:16:09;412.15;;;292.42;;
59458;SDS011;45269;43.568;22.244;2023-02-13T07:18:34;528.78;;;414.27;;
59458;SDS011;45269;43.568;22.244;2023-02-13T07:21:00;363.10;;;270.27;;
59458;SDS011;45269;43.568;22.244;2023-02-13T07:23:25;443.20;;;320.63;;
59458;SDS011;45269;43.568;22.244;2023-02-13T07:25:50;257.67;;;191.43;;
59458;SDS011;45269;43.568;22.244;2023-02-13T07:28:15;289.38;;;226.57;;
59458;SDS011;45269;43.568;22.244;2023-02-13T07:30:41;338.02;;;267.90;;
59458;SDS011;45269;43.568;22.244;2023-02-13T07:33:06;333.48;;;267.63;;
59458;SDS011;45269;43.568;22.244;2023-02-13T07:35:31;258.80;;;207.55;;
59458;SDS011;45269;43.568;22.244;2023-02-13T07:37:57;240.18;;;196.43;;
59458;SDS011;45269;43.568;22.244;2023-02-13T07:40:24;219.82;;;162.70;;
59458;SDS011;45269;43.568;22.244;2023-02-13T07:42:49;258.55;;;200.23;;
59458;SDS011;45269;43.568;22.244;2023-02-13T07:45:15;275.05;;;216.48;;
59458;SDS011;45269;43.568;22.244;2023-02-13T07:47:41;250.05;;;199.00;;
59458;SDS011;45269;43.568;22.244;2023-02-13T07:50:07;245.52;;;197.60;;
59458;SDS011;45269;43.568;22.244;2023-02-13T07:52:33;217.45;;;169.10;;
59458;SDS011;45269;43.568;22.244;2023-02-13T07:54:58;197.60;;;158.20;;
59458;SDS011;45269;43.568;22.244;2023-02-13T07:57:23;207.20;;;162.98;;
59458;SDS011;45269;43.568;22.244;2023-02-13T07:59:48;168.60;;;132.68;;
59458;SDS011;45269;43.568;22.244;2023-02-13T08:02:14;143.95;;;115.00;;
59458;SDS011;45269;43.568;22.244;2023-02-13T08:04:40;122.70;;;98.20;;
59458;SDS011;45269;43.568;22.244;2023-02-13T08:07:06;111.40;;;88.57;;
59458;SDS011;45269;43.568;22.244;2023-02-13T08:09:31;111.88;;;89.53;;
59458;SDS011;45269;43.568;22.244;2023-02-13T08:12:15;93.80;;;74.00;;
59458;SDS011;45269;43.568;22.244;2023-02-13T08:14:40;79.25;;;63.05;;
59458;SDS011;45269;43.568;22.244;2023-02-13T08:17:05;79.25;;;66.28;;
59458;SDS011;45269;43.568;22.244;2023-02-13T08:19:30;78.55;;;63.28;;
59458;SDS011;45269;43.568;22.244;2023-02-13T08:21:56;77.50;;;62.47;;
59458;SDS011;45269;43.568;22.244;2023-02-13T08:24:21;83.97;;;69.72;;
59458;SDS011;45269;43.568;22.244;2023-02-13T08:26:46;135.75;;;101.90;;
59458;SDS011;45269;43.568;22.244;2023-02-13T08:29:12;86.78;;;67.03;;
59458;SDS011;45269;43.568;22.244;2023-02-13T08:31:37;67.97;;;56.95;;
59458;SDS011;45269;43.568;22.244;2023-02-13T08:34:02;94.55;;;71.75;;
59458;SDS011;45269;43.568;22.244;2023-02-13T08:36:28;75.43;;;59.95;;
59458;SDS011;45269;43.568;22.244;2023-02-13T08:38:53;87.30;;;73.03;;
59458;SDS011;45269;43.568;22.244;2023-02-13T08:41:19;89.22;;;74.38;;
59458;SDS011;45269;43.568;22.244;2023-02-13T08:43:49;73.05;;;58.00;;
59458;SDS011;45269;43.568;22.244;2023-02-13T08:46:16;61.72;;;51.78;;
59458;SDS011;45269;43.568;22.244;2023-02-13T08:48:41;83.20;;;63.95;;
59458;SDS011;45269;43.568;22.244;2023-02-13T08:51:07;56.08;;;49.08;;
59458;SDS011;45269;43.568;22.244;2023-02-13T08:53:32;54.15;;;45.97;;
59458;SDS011;45269;43.568;22.244;2023-02-13T08:55:58;59.85;;;48.63;;
59458;SDS011;45269;43.568;22.244;2023-02-13T08:58:23;63.20;;;52.80;;
59458;SDS011;45269;43.568;22.244;2023-02-13T09:00:48;52.05;;;44.30;;
59458;SDS011;45269;43.568;22.244;2023-02-13T09:03:14;51.78;;;42.47;;
59458;SDS011;45269;43.568;22.244;2023-02-13T09:05:39;58.05;;;45.15;;
59458;SDS011;45269;43.568;22.244;2023-02-13T09:08:05;57.13;;;47.70;;
59458;SDS011;45269;43.568;22.244;2023-02-13T09:10:32;52.88;;;45.25;;
59458;SDS011;45269;43.568;22.244;2023-02-13T09:12:57;45.03;;;38.08;;
59458;SDS011;45269;43.568;22.244;2023-02-13T09:15:23;53.03;;;44.95;;
59458;SDS011;45269;43.568;22.244;2023-02-13T09:17:48;50.60;;;41.85;;
59458;SDS011;45269;43.568;22.244;2023-02-13T09:20:13;49.75;;;42.33;;
59458;SDS011;45269;43.568;22.244;2023-02-13T09:22:39;47.38;;;42.00;;
59458;SDS011;45269;43.568;22.244;2023-02-13T09:25:05;44.95;;;39.03;;
59458;SDS011;45269;43.568;22.244;2023-02-13T09:27:30;61.88;;;50.60;;
59458;SDS011;45269;43.568;22.244;2023-02-13T09:29:56;69.85;;;58.95;;
59458;SDS011;45269;43.568;22.244;2023-02-13T09:32:21;42.95;;;36.97;;
59458;SDS011;45269;43.568;22.244;2023-02-13T09:34:46;58.42;;;50.33;;
59458;SDS011;45269;43.568;22.244;2023-02-13T09:37:12;56.03;;;44.90;;
59458;SDS011;45269;43.568;22.244;2023-02-13T09:39:37;46.55;;;39.95;;
59458;SDS011;45269;43.568;22.244;2023-02-13T09:42:03;52.00;;;46.05;;
59458;SDS011;45269;43.568;22.244;2023-02-13T09:44:40;51.85;;;44.58;;
59458;SDS011;45269;43.568;22.244;2023-02-13T09:49:53;49.88;;;42.67;;
59458;SDS011;45269;43.568;22.244;2023-02-13T09:52:19;47.47;;;41.70;;
59458;SDS011;45269;43.568;22.244;2023-02-13T09:54:45;41.72;;;35.72;;
59458;SDS011;45269;43.568;22.244;2023-02-13T10:02:13;49.47;;;40.13;;
59458;SDS011;45269;43.568;22.244;2023-02-13T10:05:31;45.60;;;38.30;;
59458;SDS011;45269;43.568;22.244;2023-02-13T10:07:36;45.47;;;38.88;;
59458;SDS011;45269;43.568;22.244;2023-02-13T10:17:57;75.25;;;59.95;;
59458;SDS011;45269;43.568;22.244;2023-02-13T10:20:29;113.72;;;90.25;;
59458;SDS011;45269;43.568;22.244;2023-02-13T10:23:11;140.88;;;105.63;;
59458;SDS011;45269;43.568;22.244;2023-02-13T10:25:42;41.25;;;36.25;;
59458;SDS011;45269;43.568;22.244;2023-02-13T10:28:10;46.70;;;40.25;;
59458;SDS011;45269;43.568;22.244;2023-02-13T10:30:41;51.83;;;42.75;;
59458;SDS011;45269;43.568;22.244;2023-02-13T10:33:15;45.13;;;38.50;;
59458;SDS011;45269;43.568;22.244;2023-02-13T10:38:20;76.65;;;68.57;;
59458;SDS011;45269;43.568;22.244;2023-02-13T10:41:02;149.48;;;109.28;;
59458;SDS011;45269;43.568;22.244;2023-02-13T10:43:29;114.78;;;88.07;;
59458;SDS011;45269;43.568;22.244;2023-02-13T10:46:04;105.65;;;81.28;;
59458;SDS011;45269;43.568;22.244;2023-02-13T10:51:22;67.40;;;52.33;;
59458;SDS011;45269;43.568;22.244;2023-02-13T10:53:55;90.10;;;73.30;;
59458;SDS011;45269;43.568;22.244;2023-02-13T11:04:04;53.53;;;47.47;;
59458;SDS011;45269;43.568;22.244;2023-02-13T11:06:30;52.00;;;44.65;;
59458;SDS011;45269;43.568;22.244;2023-02-13T11:08:57;54.60;;;45.42;;
59458;SDS011;45269;43.568;22.244;2023-02-13T11:11:32;54.60;;;48.47;;
59458;SDS011;45269;43.568;22.244;2023-02-13T11:19:13;48.25;;;40.70;;
59458;SDS011;45269;43.568;22.244;2023-02-13T11:21:42;41.65;;;36.90;;
59458;SDS011;45269;43.568;22.244;2023-02-13T11:24:14;56.80;;;49.88;;
59458;SDS011;45269;43.568;22.244;2023-02-13T11:26:41;37.78;;;32.22;;
59458;SDS011;45269;43.568;22.244;2023-02-13T11:29:24;62.58;;;47.72;;
59458;SDS011;45269;43.568;22.244;2023-02-13T11:32:04;74.88;;;52.97;;
59458;SDS011;45269;43.568;22.244;2023-02-13T11:34:30;36.38;;;30.92;;
59458;SDS011;45269;43.568;22.244;2023-02-13T11:39:37;41.42;;;36.92;;
59458;SDS011;45269;43.568;22.244;2023-02-13T11:42:02;46.15;;;38.58;;
59458;SDS011;45269;43.568;22.244;2023-02-13T11:44:29;40.95;;;35.80;;
59458;SDS011;45269;43.568;22.244;2023-02-13T11:46:56;38.15;;;32.92;;
59458;SDS011;45269;43.568;22.244;2023-02-13T11:49:42;42.97;;;35.63;;
59458;SDS011;45269;43.568;22.244;2023-02-13T11:52:27;37.40;;;32.75;;
59458;SDS011;45269;43.568;22.244;2023-02-13T11:55:00;57.42;;;48.92;;
59458;SDS011;45269;43.568;22.244;2023-02-13T11:57:30;55.17;;;47.83;;
59458;SDS011;45269;43.568;22.244;2023-02-13T11:59:56;37.35;;;32.15;;
59458;SDS011;45269;43.568;22.244;2023-02-13T12:02:23;43.95;;;37.33;;
59458;SDS011;45269;43.568;22.244;2023-02-13T12:04:50;40.78;;;34.97;;
59458;SDS011;45269;43.568;22.244;2023-02-13T12:07:28;54.40;;;45.25;;
59458;SDS011;45269;43.568;22.244;2023-02-13T12:12:36;51.83;;;43.40;;
59458;SDS011;45269;43.568;22.244;2023-02-13T12:15:09;46.10;;;38.00;;
59458;SDS011;45269;43.568;22.244;2023-02-13T12:17:38;53.65;;;46.47;;
59458;SDS011;45269;43.568;22.244;2023-02-13T12:20:10;48.53;;;41.35;;
59458;SDS011;45269;43.568;22.244;2023-02-13T12:25:30;39.72;;;34.13;;
59458;SDS011;45269;43.568;22.244;2023-02-13T12:35:56;39.05;;;34.30;;
59458;SDS011;45269;43.568;22.244;2023-02-13T12:56:18;35.22;;;31.48;;
59458;SDS011;45269;43.568;22.244;2023-02-13T13:09:32;83.85;;;49.60;;
59458;SDS011;45269;43.568;22.244;2023-02-13T13:16:57;31.65;;;27.58;;
59458;SDS011;45269;43.568;22.244;2023-02-13T13:30:05;35.08;;;30.67;;
59458;SDS011;45269;43.568;22.244;2023-02-13T13:32:37;32.03;;;28.35;;
59458;SDS011;45269;43.568;22.244;2023-02-13T13:35:03;29.88;;;25.75;;
59458;SDS011;45269;43.568;22.244;2023-02-13T13:40:16;60.60;;;48.45;;
59458;SDS011;45269;43.568;22.244;2023-02-13T13:42:47;28.80;;;25.73;;
59458;SDS011;45269;43.568;22.244;2023-02-13T13:50:32;29.42;;;25.88;;
59458;SDS011;45269;43.568;22.244;2023-02-13T13:53:07;32.25;;;26.02;;
59458;SDS011;45269;43.568;22.244;2023-02-13T13:58:20;39.17;;;31.98;;
59458;SDS011;45269;43.568;22.244;2023-02-13T14:00:46;36.42;;;29.05;;
59458;SDS011;45269;43.568;22.244;2023-02-13T14:03:34;32.45;;;27.25;;
59458;SDS011;45269;43.568;22.244;2023-02-13T14:06:04;31.95;;;27.42;;
59458;SDS011;45269;43.568;22.244;2023-02-13T14:11:06;41.55;;;35.97;;
59458;SDS011;45269;43.568;22.244;2023-02-13T14:13:48;38.10;;;31.88;;
59458;SDS011;45269;43.568;22.244;2023-02-13T14:16:19;34.83;;;30.50;;
59458;SDS011;45269;43.568;22.244;2023-02-13T14:18:59;33.78;;;28.50;;
59458;SDS011;45269;43.568;22.244;2023-02-13T14:21:25;35.42;;;29.92;;
59458;SDS011;45269;43.568;22.244;2023-02-13T14:23:50;70.88;;;58.67;;
59458;SDS011;45269;43.568;22.244;2023-02-13T14:26:29;49.83;;;41.20;;
59458;SDS011;45269;43.568;22.244;2023-02-13T14:28:57;58.00;;;47.03;;
59458;SDS011;45269;43.568;22.244;2023-02-13T14:33:55;37.22;;;31.90;;
59458;SDS011;45269;43.568;22.244;2023-02-13T14:36:21;34.95;;;28.67;;
59458;SDS011;45269;43.568;22.244;2023-02-13T14:43:59;28.95;;;24.90;;
59458;SDS011;45269;43.568;22.244;2023-02-13T14:46:34;24.38;;;21.30;;
59458;SDS011;45269;43.568;22.244;2023-02-13T14:49:05;33.20;;;29.48;;
59458;SDS011;45269;43.568;22.244;2023-02-13T14:51:35;37.50;;;32.20;;
59458;SDS011;45269;43.568;22.244;2023-02-13T14:54:08;40.53;;;33.78;;
59458;SDS011;45269;43.568;22.244;2023-02-13T14:56:39;46.60;;;38.67;;
59458;SDS011;45269;43.568;22.244;2023-02-13T14:59:12;29.80;;;25.50;;
59458;SDS011;45269;43.568;22.244;2023-02-13T15:01:41;22.15;;;19.48;;
59458;SDS011;45269;43.568;22.244;2023-02-13T15:04:16;49.72;;;41.90;;
59458;SDS011;45269;43.568;22.244;2023-02-13T15:06:43;47.78;;;41.35;;
59458;SDS011;45269;43.568;22.244;2023-02-13T15:09:15;44.38;;;39.53;;
59458;SDS011;45269;43.568;22.244;2023-02-13T15:11:42;35.22;;;31.45;;
59458;SDS011;45269;43.568;22.244;2023-02-13T15:16:42;33.80;;;30.15;;
59458;SDS011;45269;43.568;22.244;2023-02-13T15:19:16;27.40;;;24.50;;
59458;SDS011;45269;43.568;22.244;2023-02-13T15:21:49;28.50;;;24.65;;
59458;SDS011;45269;43.568;22.244;2023-02-13T15:24:15;35.42;;;31.42;;
59458;SDS011;45269;43.568;22.244;2023-02-13T15:26:41;25.85;;;23.10;;
59458;SDS011;45269;43.568;22.244;2023-02-13T15:29:17;42.13;;;37.33;;
59458;SDS011;45269;43.568;22.244;2023-02-13T15:31:43;29.40;;;25.98;;
59458;SDS011;45269;43.568;22.244;2023-02-13T15:34:19;43.47;;;38.78;;
59458;SDS011;45269;43.568;22.244;2023-02-13T15:36:44;47.67;;;39.15;;
59458;SDS011;45269;43.568;22.244;2023-02-13T15:39:14;40.28;;;34.70;;
59458;SDS011;45269;43.568;22.244;2023-02-13T15:41:43;56.80;;;46.33;;
59458;SDS011;45269;43.568;22.244;2023-02-13T15:46:34;61.10;;;47.40;;
59458;SDS011;45269;43.568;22.244;2023-02-13T15:49:04;59.60;;;43.60;;
59458;SDS011;45269;43.568;22.244;2023-02-13T15:51:30;39.03;;;32.30;;
59458;SDS011;45269;43.568;22.244;2023-02-13T15:54:00;44.78;;;37.63;;
59458;SDS011;45269;43.568;22.244;2023-02-13T15:56:25;43.78;;;35.25;;
59458;SDS011;45269;43.568;22.244;2023-02-13T15:58:51;62.50;;;52.95;;
59458;SDS011;45269;43.568;22.244;2023-02-13T16:01:17;48.67;;;39.05;;
59458;SDS011;45269;43.568;22.244;2023-02-13T16:03:44;68.72;;;48.35;;
59458;SDS011;45269;43.568;22.244;2023-02-13T16:06:13;77.57;;;59.60;;
59458;SDS011;45269;43.568;22.244;2023-02-13T16:08:42;64.07;;;44.92;;
59458;SDS011;45269;43.568;22.244;2023-02-13T16:14:26;66.55;;;56.17;;
59458;SDS011;45269;43.568;22.244;2023-02-13T16:16:26;44.08;;;33.38;;
59458;SDS011;45269;43.568;22.244;2023-02-13T16:18:52;59.90;;;50.63;;
59458;SDS011;45269;43.568;22.244;2023-02-13T16:21:25;78.97;;;61.10;;
59458;SDS011;45269;43.568;22.244;2023-02-13T16:23:52;91.70;;;75.18;;
59458;SDS011;45269;43.568;22.244;2023-02-13T16:26:19;86.43;;;77.03;;
59458;SDS011;45269;43.568;22.244;2023-02-13T16:28:45;78.95;;;64.78;;
59458;SDS011;45269;43.568;22.244;2023-02-13T16:31:13;52.92;;;44.03;;
59458;SDS011;45269;43.568;22.244;2023-02-13T16:33:39;48.95;;;42.40;;
59458;SDS011;45269;43.568;22.244;2023-02-13T16:41:49;44.78;;;40.00;;
59458;SDS011;45269;43.568;22.244;2023-02-13T16:46:19;30.88;;;26.13;;
59458;SDS011;45269;43.568;22.244;2023-02-13T16:51:31;38.83;;;34.55;;
59458;SDS011;45269;43.568;22.244;2023-02-13T16:56:23;31.10;;;25.58;;
59458;SDS011;45269;43.568;22.244;2023-02-13T16:58:48;37.75;;;32.97;;
59458;SDS011;45269;43.568;22.244;2023-02-13T17:01:13;45.47;;;38.78;;
59458;SDS011;45269;43.568;22.244;2023-02-13T17:03:39;53.45;;;47.63;;
59458;SDS011;45269;43.568;22.244;2023-02-13T17:06:04;82.93;;;56.55;;
59458;SDS011;45269;43.568;22.244;2023-02-13T17:08:30;120.82;;;80.60;;
59458;SDS011;45269;43.568;22.244;2023-02-13T17:11:05;249.45;;;155.07;;
59458;SDS011;45269;43.568;22.244;2023-02-13T17:13:30;163.25;;;101.57;;
59458;SDS011;45269;43.568;22.244;2023-02-13T17:15:55;282.30;;;165.48;;